Time;durP1;ratioP1;P1;durP2;ratioP2;P2;SDS_P1;SDS_P2;PMS_P1;PMS_P2;Temp;Humidity;BMP_temperature;BMP_pressure;BME280_temperature;BME280_humidity;BME280_pressure;Samples;Min_cycle;Max_cycle;Signal;HPM_P1;HPM_P2
2022/12/02 00:00:19;;;;;;;0.60;0.60;;;4.40;99.90;;;;;;4966869;28;20044;-81
2022/12/02 00:02:45;;;;;;;0.70;0.70;;;4.40;99.90;;;;;;4946592;28;20216;-80
2022/12/02 00:05:23;;;;;;;0.85;0.85;;;4.40;99.90;;;;;;4952592;28;20056;-80
2022/12/02 00:07:49;;;;;;;0.80;0.80;;;4.30;99.90;;;;;;4933553;28;20048;-80
2022/12/02 00:10:27;;;;;;;0.70;0.70;;;4.30;99.90;;;;;;4953738;28;20106;-81
2022/12/02 00:12:54;;;;;;;0.70;0.70;;;4.30;99.90;;;;;;4961949;28;20692;-80
2022/12/02 00:15:31;;;;;;;0.70;0.70;;;4.20;99.90;;;;;;4978708;28;20416;-80
2022/12/02 00:17:57;;;;;;;0.70;0.70;;;4.20;99.90;;;;;;4955769;28;20048;-80
2022/12/02 00:20:23;;;;;;;0.70;0.70;;;4.20;99.90;;;;;;4969596;28;20041;-80
2022/12/02 00:22:49;;;;;;;0.70;0.70;;;4.20;99.90;;;;;;4952403;28;20121;-80
2022/12/02 00:25:14;;;;;;;0.70;0.70;;;4.20;99.90;;;;;;4952594;28;20094;-80
2022/12/02 00:27:40;;;;;;;0.60;0.60;;;4.10;99.90;;;;;;4948394;28;20365;-80
2022/12/02 00:30:06;;;;;;;0.60;0.60;;;4.20;99.90;;;;;;4944074;28;20067;-80
2022/12/02 00:32:32;;;;;;;0.60;0.60;;;4.10;99.90;;;;;;4953570;28;20428;-81
2022/12/02 00:34:58;;;;;;;0.70;0.70;;;4.20;99.90;;;;;;4976112;28;20052;-81
2022/12/02 00:37:24;;;;;;;0.60;0.60;;;4.10;99.90;;;;;;4940290;28;20052;-81
2022/12/02 00:39:50;;;;;;;0.70;0.70;;;4.10;99.90;;;;;;4956646;28;20404;-81
2022/12/02 00:42:16;;;;;;;0.70;0.70;;;4.10;99.90;;;;;;4951028;28;20454;-81
2022/12/02 00:47:25;;;;;;;0.70;0.70;;;4.10;99.90;;;;;;4978296;28;20110;-80
2022/12/02 00:49:51;;;;;;;0.70;0.70;;;4.10;99.90;;;;;;4966327;28;20091;-80
2022/12/02 00:52:17;;;;;;;0.70;0.70;;;4.00;99.90;;;;;;4934010;28;20055;-80
2022/12/02 00:54:43;;;;;;;0.70;0.70;;;4.10;99.90;;;;;;4982388;28;20455;-80
2022/12/02 00:57:08;;;;;;;0.70;0.70;;;3.90;99.90;;;;;;4974735;28;20553;-80
2022/12/02 00:59:34;;;;;;;0.70;0.70;;;4.00;99.90;;;;;;4942768;28;20658;-80
2022/12/02 01:02:00;;;;;;;0.70;0.70;;;3.90;99.90;;;;;;4979629;28;20056;-80
2022/12/02 01:04:26;;;;;;;0.70;0.70;;;3.90;99.90;;;;;;4960291;28;20040;-81
2022/12/02 01:06:51;;;;;;;0.70;0.70;;;3.90;99.90;;;;;;4973505;28;20512;-81
2022/12/02 01:09:17;;;;;;;0.70;0.70;;;3.90;99.90;;;;;;4956576;28;20041;-80
2022/12/02 01:11:43;;;;;;;0.70;0.70;;;3.90;99.90;;;;;;4958341;28;20052;-80
2022/12/02 01:14:09;;;;;;;0.70;0.70;;;3.90;99.90;;;;;;4977004;28;20145;-80
2022/12/02 01:16:35;;;;;;;0.70;0.70;;;3.80;99.90;;;;;;4952764;28;20052;-80
2022/12/02 01:19:01;;;;;;;0.73;0.73;;;3.80;99.90;;;;;;4968770;28;20074;-79
2022/12/02 01:21:26;;;;;;;0.70;0.70;;;3.80;99.90;;;;;;4975052;28;20041;-80
2022/12/02 01:23:52;;;;;;;0.70;0.70;;;3.80;99.90;;;;;;4982420;28;20041;-80
2022/12/02 01:26:18;;;;;;;0.70;0.70;;;3.80;99.90;;;;;;4975093;28;20122;-80
2022/12/02 01:28:44;;;;;;;0.70;0.70;;;3.80;99.90;;;;;;4945802;28;20044;-81
2022/12/02 01:31:10;;;;;;;0.70;0.70;;;3.80;99.90;;;;;;4961196;28;20060;-80
2022/12/02 01:33:36;;;;;;;0.80;0.80;;;3.70;99.90;;;;;;4966005;28;20451;-80
2022/12/02 01:36:02;;;;;;;0.73;0.73;;;3.70;99.90;;;;;;4980224;28;20040;-80
2022/12/02 01:38:28;;;;;;;0.80;0.80;;;3.80;99.90;;;;;;4966481;28;20064;-81
2022/12/02 01:40:54;;;;;;;0.70;0.70;;;3.70;99.90;;;;;;4960318;28;20083;-80
2022/12/02 01:43:19;;;;;;;0.70;0.70;;;3.70;99.90;;;;;;4984060;28;20056;-80
2022/12/02 01:45:45;;;;;;;0.70;0.70;;;3.70;99.90;;;;;;4984010;28;20448;-80
2022/12/02 01:48:11;;;;;;;0.70;0.70;;;3.70;99.90;;;;;;4959635;28;20044;-80
2022/12/02 01:50:38;;;;;;;0.70;0.70;;;3.70;99.90;;;;;;4979938;28;20109;-80
2022/12/02 01:53:04;;;;;;;0.60;0.60;;;3.70;99.90;;;;;;4963165;28;20853;-80
2022/12/02 01:55:30;;;;;;;0.70;0.70;;;3.70;99.90;;;;;;4985284;28;20041;-80
2022/12/02 01:57:57;;;;;;;0.70;0.70;;;3.70;99.90;;;;;;4963323;28;20490;-81
2022/12/02 02:00:23;;;;;;;0.70;0.70;;;3.60;99.90;;;;;;4973462;28;20775;-81
2022/12/02 02:02:49;;;;;;;0.70;0.70;;;3.60;99.90;;;;;;4979038;28;20046;-80
2022/12/02 02:05:25;;;;;;;0.70;0.70;;;3.60;99.90;;;;;;4977950;28;20048;-81
2022/12/02 02:07:54;;;;;;;0.70;0.70;;;3.60;99.90;;;;;;4960989;28;20472;-81
2022/12/02 02:10:22;;;;;;;0.73;0.73;;;3.70;99.90;;;;;;4958301;28;20060;-81
2022/12/02 02:12:49;;;;;;;0.70;0.70;;;3.70;99.90;;;;;;4965606;28;20052;-82
2022/12/02 02:15:16;;;;;;;0.70;0.70;;;3.70;99.90;;;;;;4958140;28;20174;-80
2022/12/02 02:17:43;;;;;;;0.70;0.70;;;3.60;99.90;;;;;;4967692;28;20443;-81
2022/12/02 02:20:14;;;;;;;0.70;0.70;;;3.60;99.90;;;;;;4985097;28;20586;-81
2022/12/02 02:22:41;;;;;;;0.70;0.70;;;3.60;99.90;;;;;;4965611;28;20047;-81
2022/12/02 02:25:13;;;;;;;0.80;0.80;;;3.60;99.90;;;;;;4984299;28;20940;-81
2022/12/02 02:27:43;;;;;;;0.70;0.70;;;3.70;99.90;;;;;;4965237;28;20057;-79
2022/12/02 02:30:09;;;;;;;0.70;0.70;;;3.60;99.90;;;;;;4983317;28;20114;-80
2022/12/02 02:32:35;;;;;;;0.60;0.60;;;3.60;99.90;;;;;;4960644;28;20048;-80
2022/12/02 02:35:02;;;;;;;0.70;0.70;;;3.70;99.90;;;;;;4963210;28;21421;-79
2022/12/02 02:37:27;;;;;;;0.70;0.70;;;3.60;99.90;;;;;;4981856;28;20059;-79
2022/12/02 02:39:53;;;;;;;0.70;0.70;;;3.60;99.90;;;;;;4983603;28;20433;-79
2022/12/02 02:42:19;;;;;;;0.60;0.60;;;3.60;99.90;;;;;;4988381;28;20048;-80
2022/12/02 02:44:45;;;;;;;0.70;0.70;;;3.60;99.90;;;;;;4981685;28;20646;-79
2022/12/02 02:47:11;;;;;;;0.80;0.80;;;3.60;99.90;;;;;;4978350;28;20056;-81
2022/12/02 02:49:37;;;;;;;0.70;0.70;;;3.60;99.90;;;;;;4950604;28;20468;-79
2022/12/02 02:52:03;;;;;;;0.80;0.80;;;3.60;99.90;;;;;;4980740;28;20048;-80
2022/12/02 02:54:29;;;;;;;0.80;0.80;;;3.50;99.90;;;;;;4944935;28;20545;-80
2022/12/02 02:56:55;;;;;;;0.77;0.77;;;3.50;99.90;;;;;;4959272;28;20181;-80
2022/12/02 02:59:21;;;;;;;0.70;0.70;;;3.60;99.90;;;;;;4961300;28;20343;-80
2022/12/02 03:01:49;;;;;;;0.70;0.70;;;3.60;99.90;;;;;;4958959;28;20071;-80
2022/12/02 03:04:16;;;;;;;0.70;0.70;;;3.60;99.90;;;;;;4995624;28;20083;-80
2022/12/02 03:06:43;;;;;;;0.70;0.70;;;3.60;99.90;;;;;;4965585;28;20044;-79
2022/12/02 03:09:13;;;;;;;0.70;0.70;;;3.50;99.90;;;;;;4957175;28;20888;-80
2022/12/02 03:11:40;;;;;;;0.70;0.70;;;3.40;99.90;;;;;;4984281;28;20058;-80
2022/12/02 03:14:07;;;;;;;0.70;0.70;;;3.50;99.90;;;;;;4968745;28;20731;-81
2022/12/02 03:16:33;;;;;;;0.70;0.70;;;3.60;99.90;;;;;;4965558;28;20059;-80
2022/12/02 03:19:00;;;;;;;0.70;0.70;;;3.50;99.90;;;;;;4963496;28;20850;-81
2022/12/02 03:21:26;;;;;;;0.70;0.70;;;3.50;99.90;;;;;;4956669;28;20044;-81
2022/12/02 03:23:55;;;;;;;0.70;0.70;;;3.40;99.90;;;;;;4960961;28;20147;-80
2022/12/02 03:26:21;;;;;;;0.70;0.70;;;3.40;99.90;;;;;;4964684;28;20048;-81
2022/12/02 03:28:48;;;;;;;0.70;0.70;;;3.50;99.90;;;;;;4976684;28;20060;-81
2022/12/02 03:31:14;;;;;;;0.80;0.80;;;3.40;99.90;;;;;;4960938;28;20142;-80
2022/12/02 03:33:41;;;;;;;0.70;0.70;;;3.40;99.90;;;;;;4963129;28;20434;-81
2022/12/02 03:36:08;;;;;;;0.70;0.70;;;3.40;99.90;;;;;;4976221;28;20821;-80
2022/12/02 03:38:35;;;;;;;0.70;0.70;;;3.40;99.90;;;;;;4971779;28;20078;-80
2022/12/02 03:41:03;;;;;;;0.70;0.70;;;3.30;99.90;;;;;;4938166;28;20444;-80
2022/12/02 03:43:29;;;;;;;0.70;0.70;;;3.40;99.90;;;;;;4953202;28;20286;-80
2022/12/02 03:45:56;;;;;;;0.70;0.70;;;3.40;99.90;;;;;;4965745;28;20315;-80
2022/12/02 03:48:24;;;;;;;0.70;0.70;;;3.50;99.90;;;;;;4962398;28;20441;-81
2022/12/02 03:50:51;;;;;;;0.70;0.70;;;3.50;99.90;;;;;;4963380;28;20131;-80
2022/12/02 03:53:18;;;;;;;0.80;0.80;;;3.60;99.90;;;;;;4979732;28;20044;-80
2022/12/02 03:55:44;;;;;;;0.70;0.70;;;3.50;99.90;;;;;;4969430;28;20058;-80
2022/12/02 03:58:09;;;;;;;0.70;0.70;;;3.50;99.90;;;;;;4975708;28;20570;-80
2022/12/02 04:00:36;;;;;;;0.80;0.80;;;3.40;99.90;;;;;;4983482;28;20086;-79
2022/12/02 04:03:03;;;;;;;0.70;0.70;;;3.50;99.90;;;;;;4979354;28;20048;-79
2022/12/02 04:05:29;;;;;;;0.70;0.70;;;3.40;99.90;;;;;;4941712;28;20159;-79
2022/12/02 04:07:55;;;;;;;0.70;0.70;;;3.50;99.90;;;;;;4977412;28;20259;-80
2022/12/02 04:10:20;;;;;;;0.70;0.70;;;3.50;99.90;;;;;;4956462;28;20051;-80
2022/12/02 04:12:46;;;;;;;0.70;0.70;;;3.60;99.90;;;;;;4973217;28;20044;-80
2022/12/02 04:15:12;;;;;;;0.80;0.80;;;3.60;99.90;;;;;;4938816;28;20076;-79
2022/12/02 04:17:38;;;;;;;0.70;0.70;;;3.50;99.90;;;;;;4978709;28;20149;-79
2022/12/02 04:20:05;;;;;;;0.70;0.70;;;3.50;99.90;;;;;;4956815;28;20785;-79
2022/12/02 04:22:31;;;;;;;0.70;0.70;;;3.50;99.90;;;;;;4972116;28;20151;-79
2022/12/02 04:24:58;;;;;;;0.70;0.70;;;3.40;99.90;;;;;;4957327;28;20127;-80
2022/12/02 04:27:25;;;;;;;0.77;0.77;;;3.50;99.90;;;;;;4961497;28;20053;-80
2022/12/02 04:29:51;;;;;;;0.77;0.77;;;3.50;99.90;;;;;;4956876;28;20322;-80
2022/12/02 04:32:17;;;;;;;0.70;0.70;;;3.60;99.90;;;;;;4965293;28;20139;-80
2022/12/02 04:34:43;;;;;;;0.70;0.70;;;3.50;99.90;;;;;;4961097;28;20476;-79
2022/12/02 04:37:09;;;;;;;0.70;0.70;;;3.50;99.90;;;;;;4975557;28;20059;-79
2022/12/02 04:39:35;;;;;;;0.70;0.70;;;3.60;99.90;;;;;;4976506;28;20483;-80
2022/12/02 04:42:01;;;;;;;0.80;0.80;;;3.40;99.90;;;;;;4979947;28;20747;-80
2022/12/02 04:44:27;;;;;;;0.73;0.73;;;3.50;99.90;;;;;;4979965;28;20048;-79
2022/12/02 04:46:52;;;;;;;0.70;0.70;;;3.60;99.90;;;;;;4958416;28;20463;-80
2022/12/02 04:49:18;;;;;;;0.70;0.70;;;3.50;99.90;;;;;;4960239;28;20465;-81
2022/12/02 04:51:44;;;;;;;0.70;0.70;;;3.40;99.90;;;;;;4949066;28;20054;-80
2022/12/02 04:54:10;;;;;;;0.70;0.70;;;3.50;99.90;;;;;;4956282;28;20787;-80
2022/12/02 04:56:36;;;;;;;0.70;0.70;;;3.40;99.90;;;;;;4972211;28;20045;-81
2022/12/02 04:59:01;;;;;;;0.70;0.70;;;3.40;99.90;;;;;;4964649;28;20175;-80
2022/12/02 05:01:27;;;;;;;0.70;0.70;;;3.40;99.90;;;;;;4972660;28;20056;-80
2022/12/02 05:03:53;;;;;;;0.75;0.75;;;3.40;99.90;;;;;;4963677;28;20040;-80
2022/12/02 05:06:34;;;;;;;0.80;0.80;;;3.40;99.90;;;;;;4940976;28;20216;-79
2022/12/02 05:09:00;;;;;;;0.70;0.70;;;3.50;99.90;;;;;;4977910;28;21001;-80
2022/12/02 05:11:26;;;;;;;0.70;0.70;;;3.40;99.90;;;;;;4980540;28;20045;-80
2022/12/02 05:13:51;;;;;;;0.70;0.70;;;3.40;99.90;;;;;;4976482;28;20042;-80
2022/12/02 05:16:17;;;;;;;0.70;0.70;;;3.40;99.90;;;;;;4963552;28;20072;-80
2022/12/02 05:18:43;;;;;;;0.70;0.70;;;3.50;99.90;;;;;;4946722;28;20436;-80
2022/12/02 05:21:08;;;;;;;0.80;0.80;;;3.50;99.90;;;;;;4954501;28;20533;-80
2022/12/02 05:23:34;;;;;;;0.70;0.70;;;3.40;99.90;;;;;;4954861;28;20102;-80
2022/12/02 05:26:01;;;;;;;0.70;0.70;;;3.50;99.90;;;;;;4957265;28;20040;-80
2022/12/02 05:28:27;;;;;;;0.70;0.70;;;3.40;99.90;;;;;;4977643;28;20048;-80
2022/12/02 05:30:53;;;;;;;0.77;0.77;;;3.40;99.90;;;;;;4967113;28;20163;-80
2022/12/02 05:33:19;;;;;;;0.70;0.70;;;3.40;99.90;;;;;;4984029;28;20048;-80
2022/12/02 05:35:45;;;;;;;0.70;0.70;;;3.50;99.90;;;;;;4960531;28;20278;-81
2022/12/02 05:38:10;;;;;;;0.70;0.70;;;3.50;99.90;;;;;;4939908;28;20822;-79
2022/12/02 05:40:36;;;;;;;0.70;0.70;;;3.40;99.90;;;;;;4972129;28;20048;-79
2022/12/02 05:43:17;;;;;;;0.80;0.80;;;3.50;99.90;;;;;;4970027;28;20040;-79
2022/12/02 05:45:44;;;;;;;0.70;0.70;;;3.40;99.90;;;;;;4958366;28;20472;-80
2022/12/02 05:48:12;;;;;;;0.70;0.70;;;3.40;99.90;;;;;;4954232;28;20494;-80
2022/12/02 05:50:40;;;;;;;0.70;0.70;;;3.40;99.90;;;;;;4943209;28;20905;-80
2022/12/02 05:53:26;;;;;;;0.70;0.70;;;3.50;99.90;;;;;;4965594;28;20660;-80
2022/12/02 05:55:54;;;;;;;0.70;0.70;;;3.40;99.90;;;;;;4983289;28;20364;-80
2022/12/02 05:58:22;;;;;;;0.70;0.70;;;3.40;99.90;;;;;;4962168;28;20051;-80
2022/12/02 06:00:55;;;;;;;0.80;0.80;;;3.50;99.90;;;;;;4954820;28;20501;-80
2022/12/02 06:03:21;;;;;;;0.80;0.80;;;3.50;99.90;;;;;;4962002;28;20524;-80
2022/12/02 06:05:47;;;;;;;0.70;0.70;;;3.40;99.90;;;;;;4965284;28;20481;-80
2022/12/02 06:08:22;;;;;;;0.70;0.70;;;3.40;99.90;;;;;;4977291;28;20063;-80
2022/12/02 06:10:51;;;;;;;0.70;0.70;;;3.50;99.90;;;;;;4961290;28;20081;-80
2022/12/02 06:13:25;;;;;;;0.70;0.70;;;3.50;99.90;;;;;;4944240;28;20044;-80
2022/12/02 06:15:51;;;;;;;0.70;0.70;;;3.40;99.90;;;;;;4960725;28;20078;-80
2022/12/02 06:18:26;;;;;;;0.70;0.70;;;3.40;99.90;;;;;;4954305;28;20056;-80
2022/12/02 06:20:59;;;;;;;0.70;0.70;;;3.50;99.90;;;;;;4980792;28;20033;-80
2022/12/02 06:23:28;;;;;;;0.70;0.70;;;3.50;99.90;;;;;;4975914;28;20144;-80
2022/12/02 06:25:55;;;;;;;0.70;0.70;;;3.50;99.90;;;;;;4972916;28;20048;-80
2022/12/02 06:28:25;;;;;;;0.70;0.70;;;3.50;99.90;;;;;;4977718;28;20052;-80
2022/12/02 06:30:57;;;;;;;0.73;0.73;;;3.50;99.90;;;;;;4954015;28;20795;-80
2022/12/02 06:33:35;;;;;;;0.70;0.70;;;3.50;99.90;;;;;;4971658;28;20414;-80
2022/12/02 06:36:03;;;;;;;0.70;0.70;;;3.50;99.90;;;;;;4937160;28;20489;-80
2022/12/02 06:38:33;;;;;;;0.70;0.70;;;3.40;99.90;;;;;;4963929;28;20801;-80
2022/12/02 06:41:09;;;;;;;0.70;0.70;;;3.50;99.90;;;;;;4955729;28;20391;-80
2022/12/02 06:43:35;;;;;;;0.70;0.70;;;3.50;99.90;;;;;;4957426;28;20580;-80
2022/12/02 06:46:03;;;;;;;0.70;0.70;;;3.50;99.90;;;;;;4979774;28;20048;-80
2022/12/02 06:48:35;;;;;;;0.70;0.70;;;3.40;99.90;;;;;;4981141;28;20852;-80
2022/12/02 06:51:16;;;;;;;0.70;0.70;;;3.40;99.90;;;;;;4968052;28;20441;-80
2022/12/02 06:53:43;;;;;;;0.70;0.70;;;3.50;99.90;;;;;;4974685;28;20045;-80
2022/12/02 06:56:15;;;;;;;0.70;0.70;;;3.50;99.90;;;;;;4957138;28;20057;-80
2022/12/02 06:58:45;;;;;;;0.70;0.70;;;3.40;99.90;;;;;;4957703;28;20942;-80
2022/12/02 07:01:22;;;;;;;0.70;0.70;;;3.40;99.90;;;;;;4983257;28;20127;-80
2022/12/02 07:04:07;;;;;;;0.70;0.70;;;3.40;99.90;;;;;;4960976;28;20070;-81
2022/12/02 07:06:40;;;;;;;0.70;0.70;;;3.40;99.90;;;;;;4965531;28;20163;-81
2022/12/02 07:09:12;;;;;;;0.70;0.70;;;3.50;99.90;;;;;;4981405;28;20245;-80
2022/12/02 07:11:49;;;;;;;0.80;0.80;;;3.40;99.90;;;;;;4961896;28;21270;-81
2022/12/02 07:14:38;;;;;;;0.70;0.70;;;3.40;99.90;;;;;;4957028;28;20091;-80
2022/12/02 07:17:21;;;;;;;0.70;0.70;;;3.40;99.90;;;;;;4962620;28;20052;-81
2022/12/02 07:19:53;;;;;;;0.70;0.70;;;3.30;99.90;;;;;;4965172;28;20056;-79
2022/12/02 07:22:22;;;;;;;0.70;0.70;;;3.40;99.90;;;;;;4977351;28;20133;-80
2022/12/02 07:25:09;;;;;;;0.70;0.70;;;3.40;99.90;;;;;;4956468;28;20609;-80
2022/12/02 07:27:39;;;;;;;0.70;0.70;;;3.50;99.90;;;;;;4976883;28;20147;-80
2022/12/02 07:30:25;;;;;;;0.70;0.70;;;3.30;99.90;;;;;;4977862;28;20799;-79
2022/12/02 07:32:51;;;;;;;0.70;0.70;;;3.40;99.90;;;;;;4975514;28;20403;-80
2022/12/02 07:35:18;;;;;;;0.70;0.70;;;3.30;99.90;;;;;;4979475;28;20858;-81
2022/12/02 07:37:44;;;;;;;0.80;0.80;;;3.30;99.90;;;;;;4980701;28;20409;-79
2022/12/02 07:40:17;;;;;;;0.70;0.70;;;3.30;99.90;;;;;;4980025;28;20155;-81
2022/12/02 07:42:44;;;;;;;0.70;0.70;;;3.30;99.90;;;;;;4979101;28;20067;-79
2022/12/02 07:45:18;;;;;;;0.70;0.70;;;3.30;99.90;;;;;;4979838;28;20390;-80
2022/12/02 07:47:45;;;;;;;0.70;0.70;;;3.20;99.90;;;;;;4982668;28;20044;-80
2022/12/02 07:50:15;;;;;;;0.70;0.70;;;3.20;99.90;;;;;;4984875;28;20049;-81
2022/12/02 07:52:41;;;;;;;0.70;0.70;;;3.20;99.90;;;;;;4979658;28;20060;-81
2022/12/02 07:55:07;;;;;;;0.70;0.70;;;3.20;99.90;;;;;;4955878;28;20398;-80
2022/12/02 07:57:33;;;;;;;0.95;0.95;;;3.20;99.90;;;;;;4980697;28;20604;-79
2022/12/02 07:59:59;;;;;;;0.70;0.70;;;3.20;99.90;;;;;;4959214;28;20519;-81
2022/12/02 08:02:25;;;;;;;0.70;0.70;;;3.20;99.90;;;;;;4961620;28;20041;-80
2022/12/02 08:04:51;;;;;;;0.70;0.70;;;3.20;99.90;;;;;;4960059;28;20052;-80
2022/12/02 08:07:17;;;;;;;0.70;0.70;;;3.20;99.90;;;;;;4978330;28;20056;-80
2022/12/02 08:09:43;;;;;;;0.60;0.60;;;3.20;99.90;;;;;;4956721;28;20417;-79
2022/12/02 08:12:09;;;;;;;0.70;0.70;;;3.30;99.90;;;;;;4973024;28;20845;-80
2022/12/02 08:14:34;;;;;;;0.70;0.70;;;3.20;99.90;;;;;;4972801;28;20040;-81
2022/12/02 08:17:00;;;;;;;0.70;0.70;;;3.30;99.90;;;;;;4955462;28;20456;-81
2022/12/02 08:19:26;;;;;;;0.70;0.70;;;3.20;99.90;;;;;;4943253;28;20362;-80
2022/12/02 08:21:52;;;;;;;0.73;0.73;;;3.30;99.90;;;;;;4974047;28;20101;-80
2022/12/02 08:24:18;;;;;;;0.70;0.70;;;3.30;99.90;;;;;;4940984;28;20790;-80
2022/12/02 08:26:44;;;;;;;0.70;0.70;;;3.30;99.90;;;;;;4979403;28;20600;-80
2022/12/02 08:29:09;;;;;;;0.70;0.70;;;3.30;99.90;;;;;;4977607;28;21023;-80
2022/12/02 08:31:35;;;;;;;0.70;0.70;;;3.30;99.90;;;;;;4954803;28;20052;-80
2022/12/02 08:34:02;;;;;;;0.70;0.70;;;3.30;99.90;;;;;;4965147;28;20055;-80
2022/12/02 08:36:28;;;;;;;0.70;0.70;;;3.30;99.90;;;;;;4976834;28;20837;-80
2022/12/02 08:38:53;;;;;;;0.73;0.73;;;3.30;99.90;;;;;;4959360;28;20047;-79
2022/12/02 08:41:19;;;;;;;0.80;0.80;;;3.30;99.90;;;;;;4958231;28;20098;-80
2022/12/02 08:43:45;;;;;;;0.70;0.70;;;3.30;99.90;;;;;;4955917;28;21001;-81
2022/12/02 08:46:12;;;;;;;0.70;0.70;;;3.40;99.90;;;;;;4960704;28;20058;-80
2022/12/02 08:48:38;;;;;;;0.70;0.70;;;3.40;99.90;;;;;;4955744;28;20159;-80
2022/12/02 08:51:05;;;;;;;0.70;0.70;;;3.40;99.90;;;;;;4979756;28;20052;-79
2022/12/02 08:53:30;;;;;;;0.70;0.70;;;3.40;99.90;;;;;;4960513;28;20501;-80
2022/12/02 08:55:56;;;;;;;0.70;0.70;;;3.40;99.90;;;;;;4982931;28;20036;-79
2022/12/02 08:58:22;;;;;;;0.70;0.70;;;3.30;99.90;;;;;;4942065;28;20771;-80
2022/12/02 09:00:49;;;;;;;0.70;0.70;;;3.40;99.90;;;;;;4957221;28;20059;-80
2022/12/02 09:03:14;;;;;;;0.70;0.70;;;3.40;99.90;;;;;;4942045;28;20464;-80
2022/12/02 09:05:40;;;;;;;0.70;0.70;;;3.30;99.90;;;;;;4975427;28;20040;-79
2022/12/02 09:08:07;;;;;;;0.70;0.70;;;3.30;99.90;;;;;;4953847;28;20051;-80
2022/12/02 09:10:34;;;;;;;0.80;0.80;;;3.30;99.90;;;;;;4968929;28;20502;-80
2022/12/02 09:13:00;;;;;;;0.70;0.70;;;3.30;99.90;;;;;;4957541;28;20045;-81
2022/12/02 09:15:25;;;;;;;0.70;0.70;;;3.30;99.90;;;;;;4925711;28;20079;-79
2022/12/02 09:17:51;;;;;;;0.70;0.70;;;3.30;99.90;;;;;;4976994;28;20055;-80
2022/12/02 09:20:17;;;;;;;0.70;0.70;;;3.30;99.90;;;;;;4971030;28;20049;-80
2022/12/02 09:22:44;;;;;;;0.70;0.70;;;3.20;99.90;;;;;;4958500;28;20860;-81
2022/12/02 09:25:11;;;;;;;0.70;0.70;;;3.20;99.90;;;;;;4959929;28;20056;-80
2022/12/02 09:27:37;;;;;;;0.70;0.70;;;3.20;99.90;;;;;;4974570;28;20082;-80
2022/12/02 09:30:04;;;;;;;0.70;0.70;;;3.20;99.90;;;;;;4955250;28;20048;-80
2022/12/02 09:32:29;;;;;;;0.70;0.70;;;3.20;99.90;;;;;;4975554;28;20151;-80
2022/12/02 09:34:55;;;;;;;0.70;0.70;;;3.30;99.90;;;;;;4943915;28;20493;-80
2022/12/02 09:37:21;;;;;;;0.70;0.70;;;3.10;99.90;;;;;;4958208;28;20559;-80
2022/12/02 09:39:47;;;;;;;0.70;0.70;;;3.10;99.90;;;;;;4960298;28;20937;-80
2022/12/02 09:42:14;;;;;;;0.70;0.70;;;3.10;99.90;;;;;;4985177;28;20067;-80
2022/12/02 09:44:42;;;;;;;0.73;0.73;;;3.10;99.90;;;;;;4981338;28;20421;-80
2022/12/02 09:47:09;;;;;;;0.80;0.80;;;3.10;99.90;;;;;;4976664;28;20896;-80
2022/12/02 09:49:36;;;;;;;0.70;0.70;;;3.10;99.90;;;;;;4981575;28;20216;-78
2022/12/02 09:52:04;;;;;;;0.70;0.70;;;3.00;99.90;;;;;;4963093;28;20119;-79
2022/12/02 09:54:31;;;;;;;0.70;0.70;;;2.90;99.90;;;;;;4978363;28;20911;-80
2022/12/02 09:56:57;;;;;;;0.70;0.70;;;2.90;99.90;;;;;;4978322;28;20498;-80
2022/12/02 09:59:23;;;;;;;0.70;0.70;;;2.90;99.90;;;;;;4979493;28;20131;-80
2022/12/02 10:01:49;;;;;;;0.70;0.70;;;2.70;99.90;;;;;;4963268;28;20044;-80
2022/12/02 10:04:22;;;;;;;0.70;0.70;;;2.70;99.90;;;;;;4960516;28;20508;-80
2022/12/02 10:06:48;;;;;;;0.70;0.70;;;2.90;99.90;;;;;;4962052;28;20525;-80
2022/12/02 10:09:26;;;;;;;0.70;0.70;;;2.80;99.90;;;;;;4959395;28;20049;-80
2022/12/02 10:11:52;;;;;;;0.70;0.70;;;2.80;99.90;;;;;;4980962;28;20435;-79
2022/12/02 10:14:18;;;;;;;0.70;0.70;;;2.80;99.90;;;;;;4958953;28;20645;-80
2022/12/02 10:16:44;;;;;;;0.70;0.70;;;2.80;99.90;;;;;;4963814;28;20413;-79
2022/12/02 10:19:15;;;;;;;0.70;0.70;;;2.70;99.90;;;;;;4980974;28;20079;-79
2022/12/02 10:21:41;;;;;;;0.70;0.70;;;2.80;99.90;;;;;;4964599;28;20080;-79
2022/12/02 10:24:08;;;;;;;0.70;0.70;;;2.80;99.90;;;;;;4958086;28;20040;-80
2022/12/02 10:26:42;;;;;;;0.73;0.73;;;2.80;99.90;;;;;;4962669;28;20449;-79
2022/12/02 10:29:17;;;;;;;0.70;0.70;;;2.70;99.90;;;;;;4960822;28;20060;-79
2022/12/02 10:31:54;;;;;;;0.70;0.70;;;2.80;99.90;;;;;;4981665;28;20061;-81
2022/12/02 10:34:21;;;;;;;0.70;0.70;;;2.80;99.90;;;;;;4959981;28;20083;-80
2022/12/02 10:37:23;;;;;;;0.73;0.73;;;2.80;99.90;;;;;;4979082;28;20091;-81
2022/12/02 10:40:12;;;;;;;0.70;0.70;;;2.80;99.90;;;;;;4959984;28;20835;-82
2022/12/02 10:42:38;;;;;;;0.70;0.70;;;2.80;99.90;;;;;;4975388;28;20767;-80
2022/12/02 10:45:09;;;;;;;0.70;0.70;;;2.80;99.90;;;;;;4975234;28;20938;-80
2022/12/02 10:47:35;;;;;;;0.70;0.70;;;2.70;99.90;;;;;;4960246;28;20055;-82
2022/12/02 10:50:01;;;;;;;0.70;0.70;;;2.70;99.90;;;;;;4961400;28;20048;-80
2022/12/02 10:52:30;;;;;;;0.70;0.70;;;2.70;99.90;;;;;;4976866;28;20987;-79
2022/12/02 10:54:57;;;;;;;0.80;0.80;;;2.70;99.90;;;;;;4943617;28;20045;-79
2022/12/02 10:57:27;;;;;;;0.70;0.70;;;2.70;99.90;;;;;;4984797;28;20052;-80
2022/12/02 10:59:55;;;;;;;0.80;0.80;;;2.50;99.90;;;;;;4965773;28;20057;-80
2022/12/02 11:02:32;;;;;;;0.80;0.80;;;2.50;99.90;;;;;;4986891;28;21521;-79
2022/12/02 11:05:22;;;;;;;0.80;0.80;;;2.60;99.90;;;;;;4980940;28;20413;-79
2022/12/02 11:08:15;;;;;;;0.80;0.80;;;2.70;99.90;;;;;;4958932;28;20145;-80
2022/12/02 11:10:43;;;;;;;0.70;0.70;;;2.60;99.90;;;;;;4980522;28;20040;-81
2022/12/02 11:13:12;;;;;;;0.70;0.70;;;2.70;99.90;;;;;;4958417;28;20048;-79
2022/12/02 11:15:45;;;;;;;0.70;0.70;;;2.60;99.90;;;;;;4980792;28;20570;-80
2022/12/02 11:18:29;;;;;;;0.70;0.70;;;2.60;99.90;;;;;;4957868;28;20041;-78
2022/12/02 11:21:01;;;;;;;0.70;0.70;;;2.60;99.90;;;;;;4980128;28;20806;-79
2022/12/02 11:23:28;;;;;;;0.80;0.80;;;2.70;99.90;;;;;;4978524;28;20548;-78
2022/12/02 11:26:04;;;;;;;1.05;1.02;;;2.60;99.90;;;;;;4978503;28;20079;-79
2022/12/02 11:28:30;;;;;;;0.80;0.80;;;2.70;99.90;;;;;;4958787;28;20048;-79
2022/12/02 11:31:17;;;;;;;0.80;0.80;;;2.70;99.90;;;;;;4981084;28;21333;-79
2022/12/02 11:33:43;;;;;;;0.80;0.80;;;2.70;99.90;;;;;;4963032;28;20076;-79
2022/12/02 11:36:20;;;;;;;0.80;0.80;;;2.80;99.90;;;;;;4978600;28;20422;-80
2022/12/02 11:38:52;;;;;;;0.70;0.70;;;2.70;99.90;;;;;;4970876;28;20048;-79
2022/12/02 11:41:20;;;;;;;0.80;0.80;;;2.80;99.90;;;;;;4960412;28;20965;-79
2022/12/02 11:43:45;;;;;;;0.70;0.70;;;2.80;99.90;;;;;;4976792;28;20067;-78
2022/12/02 11:46:21;;;;;;;0.77;0.77;;;2.80;99.90;;;;;;4976797;28;20953;-80
2022/12/02 11:48:53;;;;;;;0.80;0.80;;;2.90;99.90;;;;;;4972276;28;20045;-79
2022/12/02 11:51:38;;;;;;;0.82;0.80;;;2.80;99.90;;;;;;4981113;28;20055;-79
2022/12/02 11:54:10;;;;;;;0.70;0.70;;;2.80;99.90;;;;;;4976634;28;20537;-80
2022/12/02 11:56:38;;;;;;;0.80;0.80;;;2.80;99.90;;;;;;4980056;28;20489;-80
2022/12/02 11:59:34;;;;;;;0.70;0.70;;;2.80;99.90;;;;;;4938905;28;20285;-79
2022/12/02 12:02:21;;;;;;;0.70;0.70;;;2.90;99.90;;;;;;4944297;28;20049;-81
2022/12/02 12:05:03;;;;;;;0.70;0.70;;;2.90;99.90;;;;;;4943814;28;20059;-80
2022/12/02 12:07:42;;;;;;;0.80;0.80;;;2.90;99.90;;;;;;4960642;28;20055;-80
2022/12/02 12:10:30;;;;;;;0.80;0.80;;;3.00;99.90;;;;;;4966587;28;20255;-80
2022/12/02 12:13:23;;;;;;;0.80;0.80;;;3.00;99.90;;;;;;4959939;28;20510;-79
2022/12/02 12:15:58;;;;;;;0.70;0.70;;;3.00;99.90;;;;;;4959250;28;20271;-80
2022/12/02 12:18:38;;;;;;;0.70;0.70;;;3.00;99.90;;;;;;4978812;28;20048;-80
2022/12/02 12:21:05;;;;;;;0.70;0.70;;;3.00;99.90;;;;;;4977754;28;20041;-79
2022/12/02 12:23:49;;;;;;;0.70;0.70;;;3.00;99.90;;;;;;4969806;28;20832;-80
2022/12/02 12:26:33;;;;;;;0.70;0.70;;;3.00;99.90;;;;;;4979271;28;20249;-80
2022/12/02 12:29:05;;;;;;;0.70;0.70;;;3.00;99.90;;;;;;4974714;28;20056;-81
2022/12/02 12:31:30;;;;;;;0.70;0.70;;;3.00;99.90;;;;;;4944713;28;20822;-79
2022/12/02 12:33:56;;;;;;;0.70;0.70;;;3.10;99.90;;;;;;4984256;28;20071;-80
2022/12/02 12:36:22;;;;;;;0.70;0.70;;;3.00;99.90;;;;;;4955673;28;20059;-80
2022/12/02 12:38:48;;;;;;;0.70;0.70;;;3.10;99.90;;;;;;4973122;28;20419;-81
2022/12/02 12:41:14;;;;;;;0.70;0.70;;;3.10;99.90;;;;;;4957774;28;20691;-80
2022/12/02 12:43:40;;;;;;;0.70;0.70;;;3.10;99.90;;;;;;4939007;28;20048;-80
2022/12/02 12:46:06;;;;;;;0.70;0.70;;;3.10;99.90;;;;;;4974718;28;20885;-79
2022/12/02 12:48:32;;;;;;;0.70;0.70;;;3.00;99.90;;;;;;4975565;28;20080;-80
2022/12/02 12:50:58;;;;;;;0.70;0.70;;;3.10;99.90;;;;;;4974274;28;20430;-80
2022/12/02 12:53:23;;;;;;;0.70;0.70;;;3.00;99.90;;;;;;4972892;28;20418;-80
2022/12/02 12:55:49;;;;;;;0.70;0.70;;;3.00;99.90;;;;;;4972760;28;20055;-79
2022/12/02 12:58:15;;;;;;;0.70;0.70;;;3.00;99.90;;;;;;4976959;28;20601;-80
2022/12/02 13:00:41;;;;;;;0.70;0.70;;;3.00;99.90;;;;;;4973763;28;20208;-81
2022/12/02 13:03:06;;;;;;;0.70;0.70;;;3.00;99.90;;;;;;4958819;28;20139;-81
2022/12/02 13:05:32;;;;;;;0.70;0.70;;;2.90;99.90;;;;;;4960210;28;20493;-81
2022/12/02 13:07:58;;;;;;;0.70;0.70;;;3.00;99.90;;;;;;4957816;28;20044;-80